createdAt,value
2019-04-29T00:01:07.650Z,10.13
2019-04-29T00:03:37.762Z,14.30
2019-04-29T00:06:07.803Z,9.77
2019-04-29T00:08:37.916Z,8.97
2019-04-29T00:11:07.986Z,13.27
2019-04-29T00:13:38.021Z,9.47
2019-04-29T00:16:28.197Z,10.53
2019-04-29T00:19:23.265Z,12.17
2019-04-29T00:21:53.328Z,11.47
2019-04-29T00:24:23.348Z,7.97
2019-04-29T00:26:53.489Z,9.10
2019-04-29T00:29:23.581Z,7.77
2019-04-29T00:31:53.693Z,10.53
2019-04-29T00:34:23.727Z,7.57
2019-04-29T00:37:12.781Z,8.77
2019-04-29T00:40:07.623Z,12.27
2019-04-29T00:42:56.620Z,9.40
2019-04-29T00:45:26.832Z,6.50
2019-04-29T00:47:56.893Z,6.97
2019-04-29T00:50:26.932Z,12.43
2019-04-29T00:52:56.996Z,9.73
2019-04-29T00:55:28.880Z,8.40
2019-04-29T00:57:58.931Z,10.53
2019-04-29T01:00:37.066Z,10.50
2019-04-29T01:03:07.121Z,11.97
2019-04-29T01:05:37.627Z,8.77
2019-04-29T01:08:07.688Z,11.93
2019-04-29T01:10:37.732Z,9.53
2019-04-29T01:13:07.802Z,10.87
2019-04-29T01:15:37.834Z,7.93
2019-04-29T01:18:07.902Z,4.97
2019-04-29T01:20:37.939Z,10.07
2019-04-29T01:23:07.994Z,8.80
2019-04-29T01:25:38.004Z,8.47
2019-04-29T01:28:17.733Z,8.83
2019-04-29T01:30:54.854Z,5.83
2019-04-29T01:33:24.911Z,9.47
2019-04-29T01:36:19.994Z,10.00
2019-04-29T01:38:51.535Z,10.90
2019-04-29T01:41:23.824Z,6.20
2019-04-29T01:44:04.147Z,10.17
2019-04-29T01:46:34.190Z,10.27
2019-04-29T01:49:04.246Z,12.40
2019-04-29T01:51:34.263Z,8.77
2019-04-29T01:54:04.342Z,10.17
2019-04-29T01:56:34.377Z,11.37
2019-04-29T01:59:04.620Z,7.63
2019-04-29T02:01:36.297Z,13.30
2019-04-29T02:04:06.341Z,13.57
2019-04-29T02:06:37.358Z,11.23
2019-04-29T02:09:10.395Z,8.80
2019-04-29T02:11:40.537Z,11.80
2019-04-29T02:14:10.590Z,10.53
2019-04-29T02:16:41.600Z,9.30
2019-04-29T02:19:11.648Z,8.60
2019-04-29T02:21:43.676Z,12.57
2019-04-29T02:24:18.252Z,9.83
2019-04-29T02:26:48.333Z,9.77
2019-04-29T02:29:18.365Z,9.00
2019-04-29T02:31:48.443Z,10.53
2019-04-29T02:34:18.984Z,7.10
2019-04-29T02:36:49.020Z,7.17
2019-04-29T02:39:39.526Z,9.33
2019-04-29T02:42:28.589Z,9.13
2019-04-29T02:45:02.771Z,6.70
2019-04-29T02:47:33.808Z,9.57
2019-04-29T02:50:03.874Z,6.33
2019-04-29T02:52:33.928Z,7.73
2019-04-29T02:55:06.702Z,7.77
2019-04-29T02:57:41.839Z,8.83
2019-04-29T03:00:38.226Z,8.30
2019-04-29T03:03:21.407Z,8.00
2019-04-29T03:05:55.077Z,9.40
2019-04-29T03:08:25.116Z,5.37
2019-04-29T03:10:55.156Z,6.37
2019-04-29T03:13:25.234Z,5.53
2019-04-29T03:15:55.261Z,7.57
2019-04-29T03:18:27.083Z,5.77
2019-04-29T03:21:05.152Z,7.70
2019-04-29T03:23:35.328Z,8.50
2019-04-29T03:26:05.347Z,6.23
2019-04-29T03:28:35.405Z,5.67
2019-04-29T03:31:05.434Z,7.53
2019-04-29T03:33:35.497Z,6.47
2019-04-29T03:36:05.522Z,5.67
2019-04-29T03:38:35.541Z,6.70
2019-04-29T03:41:05.586Z,4.90
2019-04-29T03:43:35.595Z,4.10
2019-04-29T03:46:05.656Z,4.37
2019-04-29T03:48:35.672Z,3.80
2019-04-29T03:51:05.727Z,5.03
2019-04-29T03:53:35.738Z,4.30
2019-04-29T03:56:05.786Z,3.83
2019-04-29T03:58:35.839Z,4.87
2019-04-29T04:01:29.624Z,6.73
2019-04-29T04:04:11.691Z,5.97
2019-04-29T04:06:56.415Z,4.27
2019-04-29T04:09:29.377Z,5.40
2019-04-29T04:11:59.418Z,6.27
2019-04-29T04:14:29.456Z,4.27
2019-04-29T04:17:21.480Z,5.47
2019-04-29T04:19:51.589Z,5.30
2019-04-29T04:22:21.634Z,3.73
2019-04-29T04:24:53.026Z,5.17
2019-04-29T04:27:23.068Z,4.20
2019-04-29T04:29:53.090Z,2.60
2019-04-29T04:32:23.191Z,3.03
2019-04-29T04:34:53.208Z,4.23
2019-04-29T04:37:23.272Z,4.10
2019-04-29T04:39:54.837Z,2.93
2019-04-29T04:42:25.008Z,2.67
2019-04-29T04:44:55.088Z,2.83
2019-04-29T04:47:25.133Z,3.00
2019-04-29T04:49:55.162Z,2.00
2019-04-29T04:52:25.194Z,2.40
2019-04-29T04:54:56.061Z,2.70
2019-04-29T04:57:26.049Z,3.60
2019-04-29T04:59:56.096Z,2.43
2019-04-29T05:02:26.730Z,3.17
2019-04-29T05:04:56.743Z,6.67
2019-04-29T05:07:27.570Z,3.63
2019-04-29T05:09:57.617Z,2.87
2019-04-29T05:12:27.655Z,3.97
2019-04-29T05:14:57.771Z,3.43
2019-04-29T05:17:27.806Z,2.23
2019-04-29T05:19:57.878Z,2.67
2019-04-29T05:22:27.909Z,3.33
2019-04-29T05:24:57.962Z,2.93
2019-04-29T05:27:28.054Z,4.83
2019-04-29T05:29:58.108Z,3.57
2019-04-29T05:32:28.131Z,3.77
2019-04-29T05:35:00.054Z,2.70
2019-04-29T05:37:38.361Z,4.03
2019-04-29T05:40:08.518Z,3.47
2019-04-29T05:42:38.533Z,2.57
2019-04-29T05:45:30.851Z,2.67
2019-04-29T05:48:07.435Z,2.67
2019-04-29T05:50:53.175Z,1.47
2019-04-29T05:53:29.529Z,5.27
2019-04-29T05:55:59.585Z,3.00
2019-04-29T05:58:32.974Z,4.23
2019-04-29T06:01:22.827Z,3.73
2019-04-29T06:03:52.852Z,3.03
2019-04-29T06:06:22.917Z,2.73
2019-04-29T06:08:52.954Z,4.77
2019-04-29T06:11:23.435Z,2.53
2019-04-29T06:13:53.507Z,2.80
2019-04-29T06:16:23.560Z,4.80
2019-04-29T06:18:59.356Z,2.80
2019-04-29T06:21:25.312Z,4.00
2019-04-29T06:23:59.347Z,2.87
2019-04-29T06:26:27.075Z,5.83
2019-04-29T06:28:57.095Z,4.07
2019-04-29T06:31:27.146Z,5.27
2019-04-29T06:34:00.613Z,4.23
2019-04-29T06:36:28.952Z,3.37
2019-04-29T06:38:58.980Z,2.93
2019-04-29T06:41:29.031Z,3.23
2019-04-29T06:44:00.556Z,4.33
2019-04-29T06:46:30.900Z,1.87
2019-04-29T06:49:10.077Z,3.47
2019-04-29T06:51:33.470Z,6.83
2019-04-29T06:54:03.506Z,2.93
2019-04-29T06:56:33.575Z,5.60
2019-04-29T06:59:03.600Z,3.00
2019-04-29T07:01:37.451Z,3.00
2019-04-29T07:04:05.469Z,3.30
2019-04-29T07:06:35.549Z,9.13
2019-04-29T07:09:06.933Z,5.50
2019-04-29T07:11:38.437Z,7.77
2019-04-29T07:14:08.637Z,4.87
2019-04-29T07:16:38.661Z,4.27
2019-04-29T07:19:09.687Z,5.27
2019-04-29T07:21:41.842Z,6.63
2019-04-29T07:24:11.448Z,4.67
2019-04-29T07:26:41.457Z,5.60
2019-04-29T07:29:11.517Z,6.37
2019-04-29T07:31:41.550Z,5.23
2019-04-29T07:34:11.593Z,9.03
2019-04-29T07:36:41.635Z,6.87
2019-04-29T07:39:11.668Z,4.13
2019-04-29T07:41:41.724Z,3.80
2019-04-29T07:44:13.773Z,4.67
2019-04-29T07:46:56.761Z,5.40
2019-04-29T07:49:22.145Z,5.70
2019-04-29T07:51:52.188Z,6.97
2019-04-29T07:54:22.252Z,8.33
2019-04-29T07:56:52.301Z,3.63
2019-04-29T07:59:22.409Z,8.57
2019-04-29T08:01:55.737Z,4.37
2019-04-29T08:04:24.224Z,5.40
2019-04-29T08:06:54.325Z,4.70
2019-04-29T08:09:24.402Z,5.30
2019-04-29T08:11:55.812Z,7.03
2019-04-29T08:14:25.849Z,9.70
2019-04-29T08:16:55.980Z,7.20
2019-04-29T08:19:29.523Z,5.37
2019-04-29T08:21:58.837Z,7.23
2019-04-29T08:24:28.898Z,7.60
2019-04-29T08:26:58.908Z,8.37
2019-04-29T08:29:30.891Z,5.70
2019-04-29T08:32:02.492Z,5.80
2019-04-29T08:34:32.464Z,10.27
2019-04-29T08:37:02.484Z,9.23
2019-04-29T08:39:33.621Z,8.37
2019-04-29T08:42:08.987Z,7.23
2019-04-29T08:45:06.202Z,5.27
2019-04-29T08:47:39.186Z,5.87
2019-04-29T08:50:09.243Z,7.27
2019-04-29T08:52:39.273Z,6.60
2019-04-29T08:55:10.302Z,10.37
2019-04-29T08:57:40.331Z,10.03
2019-04-29T09:00:11.655Z,10.23
2019-04-29T09:02:47.359Z,8.60
2019-04-29T09:05:13.443Z,5.63
2019-04-29T09:07:43.471Z,5.67
2019-04-29T09:10:14.504Z,6.77
2019-04-29T09:12:44.596Z,8.53
2019-04-29T09:15:14.616Z,6.93
2019-04-29T09:17:44.689Z,12.13
2019-04-29T09:20:14.714Z,8.33
2019-04-29T09:22:50.417Z,7.37
2019-04-29T09:25:39.382Z,6.07
2019-04-29T09:28:15.104Z,12.17
2019-04-29T09:30:43.261Z,9.13
2019-04-29T09:33:14.321Z,5.83
2019-04-29T09:35:44.748Z,9.73
2019-04-29T09:38:14.797Z,6.83
2019-04-29T09:40:54.692Z,9.57
2019-04-29T09:43:34.059Z,8.27
2019-04-29T09:46:07.287Z,9.47
2019-04-29T09:48:37.342Z,6.37
2019-04-29T09:51:17.321Z,8.83
2019-04-29T09:53:39.101Z,6.87
2019-04-29T09:56:09.128Z,7.40
2019-04-29T09:58:39.238Z,7.00
2019-04-29T10:01:18.751Z,8.23
2019-04-29T10:04:25.938Z,6.83
2019-04-29T10:06:57.758Z,7.17
2019-04-29T10:09:27.892Z,6.93
2019-04-29T10:11:57.948Z,7.47
2019-04-29T10:14:28.077Z,6.07
2019-04-29T10:17:16.675Z,10.37
2019-04-29T10:19:54.832Z,8.57
2019-04-29T10:22:24.977Z,6.53
2019-04-29T10:24:55.006Z,8.40
2019-04-29T10:27:25.024Z,8.80
2019-04-29T10:30:01.383Z,9.70
2019-04-29T10:32:31.473Z,7.77
2019-04-29T10:35:03.697Z,8.00
2019-04-29T10:37:33.397Z,5.80
2019-04-29T10:40:21.051Z,11.10
2019-04-29T10:43:15.377Z,6.90
2019-04-29T10:46:02.440Z,9.60
2019-04-29T10:48:37.340Z,7.27
2019-04-29T10:51:09.187Z,5.73
2019-04-29T10:53:39.313Z,6.10
2019-04-29T10:56:09.340Z,7.07
2019-04-29T10:58:39.368Z,5.50
2019-04-29T11:02:01.333Z,8.03
2019-04-29T11:04:31.783Z,5.83
2019-04-29T11:07:13.569Z,4.30
2019-04-29T11:09:46.362Z,10.13
2019-04-29T11:12:17.264Z,8.20
2019-04-29T11:14:47.411Z,10.67
2019-04-29T11:17:17.470Z,5.03
2019-04-29T11:19:47.493Z,7.20
2019-04-29T11:22:19.222Z,6.87
2019-04-29T11:25:06.885Z,6.67
2019-04-29T11:27:44.508Z,6.57
2019-04-29T11:30:17.997Z,7.77
2019-04-29T11:32:52.465Z,4.23
2019-04-29T11:35:39.686Z,3.90
2019-04-29T11:38:10.719Z,4.73
2019-04-29T11:40:43.713Z,4.10
2019-04-29T11:43:15.584Z,4.87
2019-04-29T11:45:45.052Z,6.40
2019-04-29T11:48:15.109Z,3.67
2019-04-29T11:50:59.060Z,3.70
2019-04-29T11:53:29.097Z,6.07
2019-04-29T11:55:59.121Z,7.53
2019-04-29T11:58:36.149Z,6.63
2019-04-29T12:01:13.556Z,7.87
2019-04-29T12:03:43.947Z,5.47
2019-04-29T12:06:16.344Z,4.93
2019-04-29T12:08:48.036Z,5.17
2019-04-29T12:11:17.866Z,3.43
2019-04-29T12:14:12.859Z,5.70
2019-04-29T12:16:49.560Z,4.43
2019-04-29T12:19:22.969Z,4.53
2019-04-29T12:21:53.008Z,5.83
2019-04-29T12:24:23.042Z,4.30
2019-04-29T12:26:53.096Z,4.93
2019-04-29T12:29:23.120Z,5.23
2019-04-29T12:32:25.128Z,5.90
2019-04-29T12:35:00.284Z,4.37
2019-04-29T12:38:00.747Z,5.73
2019-04-29T12:40:55.204Z,4.53
2019-04-29T12:44:00.748Z,3.90
2019-04-29T12:46:46.249Z,3.67
2019-04-29T12:49:16.413Z,7.43
2019-04-29T12:51:46.420Z,5.43
2019-04-29T12:54:16.461Z,7.23
2019-04-29T12:56:47.704Z,8.13
2019-04-29T12:59:19.183Z,4.00
2019-04-29T13:02:14.314Z,4.33
2019-04-29T13:05:09.715Z,5.37
2019-04-29T13:08:10.778Z,3.93
2019-04-29T13:10:45.789Z,2.90
2019-04-29T13:13:19.968Z,4.03
2019-04-29T13:16:20.075Z,5.53
2019-04-29T13:19:20.896Z,5.33
2019-04-29T13:21:51.049Z,4.97
2019-04-29T13:24:25.063Z,4.93
2019-04-29T13:26:52.816Z,4.53
2019-04-29T13:29:27.303Z,5.07
2019-04-29T13:31:55.559Z,5.77
2019-04-29T13:34:33.665Z,5.70
2019-04-29T13:37:12.197Z,6.00
2019-04-29T13:39:39.690Z,4.53
2019-04-29T13:42:09.097Z,3.93
2019-04-29T13:44:50.427Z,4.07
2019-04-29T13:47:31.018Z,5.73
2019-04-29T13:50:38.201Z,4.33
2019-04-29T13:52:54.905Z,4.87
2019-04-29T13:55:47.221Z,4.30
2019-04-29T13:57:56.710Z,7.67
2019-04-29T14:00:36.801Z,3.30
2019-04-29T14:03:12.955Z,4.60
2019-04-29T14:05:43.981Z,4.10
2019-04-29T14:08:14.006Z,4.90
2019-04-29T14:10:46.756Z,4.27
2019-04-29T14:13:17.702Z,3.50
2019-04-29T14:15:47.513Z,5.03
2019-04-29T14:18:17.542Z,3.50
2019-04-29T14:20:51.964Z,4.43
2019-04-29T14:23:19.433Z,3.23
2019-04-29T14:25:49.500Z,2.90
2019-04-29T14:28:19.512Z,4.80
2019-04-29T14:30:49.550Z,4.63
2019-04-29T14:33:24.215Z,6.47
2019-04-29T14:36:01.864Z,4.60
2019-04-29T14:38:36.078Z,4.60
2019-04-29T14:41:03.636Z,4.43
2019-04-29T14:43:58.646Z,4.00
2019-04-29T14:46:44.661Z,3.70
2019-04-29T14:49:23.918Z,7.13
2019-04-29T14:51:53.950Z,4.93
2019-04-29T14:54:23.975Z,4.57
2019-04-29T14:56:54.034Z,4.63
2019-04-29T14:59:24.400Z,6.97
2019-04-29T15:02:02.120Z,3.67
2019-04-29T15:04:37.866Z,4.20
2019-04-29T15:07:08.015Z,4.97
2019-04-29T15:09:55.801Z,5.17
2019-04-29T15:13:11.481Z,6.67
2019-04-29T15:15:47.379Z,4.20
2019-04-29T15:18:50.677Z,5.83
2019-04-29T15:21:45.735Z,6.33
2019-04-29T15:24:17.580Z,6.93
2019-04-29T15:26:47.767Z,4.60
2019-04-29T15:29:18.787Z,6.50
2019-04-29T15:31:49.084Z,3.10
2019-04-29T15:34:19.136Z,5.13
2019-04-29T15:36:49.179Z,3.83
2019-04-29T15:39:19.461Z,4.70
2019-04-29T15:41:49.622Z,6.10
2019-04-29T15:44:22.519Z,4.80
2019-04-29T15:46:51.432Z,5.40
2019-04-29T15:49:24.875Z,8.27
2019-04-29T15:51:53.208Z,5.43
2019-04-29T15:54:26.025Z,5.17
2019-04-29T15:56:55.003Z,5.17
2019-04-29T15:59:25.016Z,4.57
2019-04-29T16:01:59.047Z,6.30
2019-04-29T16:04:33.513Z,9.30
2019-04-29T16:07:28.332Z,6.07
2019-04-29T16:10:33.440Z,7.50
2019-04-29T16:13:06.440Z,5.70
2019-04-29T16:15:36.598Z,7.10
2019-04-29T16:18:10.633Z,6.13
2019-04-29T16:20:38.447Z,8.50
2019-04-29T16:23:08.471Z,9.40
2019-04-29T16:25:40.831Z,9.67
2019-04-29T16:28:10.249Z,7.30
2019-04-29T16:30:40.261Z,8.90
2019-04-29T16:33:13.896Z,5.60
2019-04-29T16:35:42.088Z,9.10
2019-04-29T16:38:13.802Z,10.27
2019-04-29T16:40:47.592Z,8.80
2019-04-29T16:43:30.365Z,9.43
2019-04-29T16:46:14.153Z,9.17
2019-04-29T16:48:44.195Z,9.23
2019-04-29T16:51:16.731Z,7.70
2019-04-29T16:53:45.949Z,8.53
2019-04-29T16:56:16.546Z,10.77
2019-04-29T16:58:46.709Z,11.70
2019-04-29T17:01:16.741Z,9.27
2019-04-29T17:03:46.798Z,14.63
2019-04-29T17:06:16.861Z,12.27
2019-04-29T17:09:08.605Z,11.60
2019-04-29T17:11:40.655Z,11.80
2019-04-29T17:14:12.626Z,10.43
2019-04-29T17:16:42.407Z,8.70
2019-04-29T17:19:12.425Z,10.17
2019-04-29T17:21:43.556Z,13.60
2019-04-29T17:24:13.577Z,14.37
2019-04-29T17:27:11.382Z,13.27
2019-04-29T17:30:03.534Z,14.27
2019-04-29T17:32:48.667Z,13.27
2019-04-29T17:35:21.868Z,9.83
2019-04-29T17:37:51.969Z,11.77
2019-04-29T17:40:22.971Z,12.67
2019-04-29T17:43:04.805Z,10.97
2019-04-29T17:45:40.105Z,9.80
2019-04-29T17:48:35.104Z,9.80
2019-04-29T17:51:07.208Z,8.37
2019-04-29T17:53:46.832Z,12.07
2019-04-29T17:56:25.331Z,10.33
2019-04-29T17:58:58.993Z,9.93
2019-04-29T18:01:47.948Z,8.43
2019-04-29T18:04:40.293Z,10.43
2019-04-29T18:07:25.070Z,7.87
2019-04-29T18:10:12.405Z,15.03
2019-04-29T18:12:45.500Z,11.57
2019-04-29T18:15:20.064Z,10.73
2019-04-29T18:17:48.983Z,12.07
2019-04-29T18:20:32.971Z,10.20
2019-04-29T18:23:35.077Z,10.13
2019-04-29T18:26:14.762Z,10.23
2019-04-29T18:28:45.763Z,11.77
2019-04-29T18:31:15.890Z,8.47
2019-04-29T18:33:45.921Z,9.40
2019-04-29T18:36:23.448Z,8.27
2019-04-29T18:38:50.062Z,12.43
2019-04-29T18:41:24.468Z,14.90
2019-04-29T18:43:51.145Z,11.37
2019-04-29T18:46:21.245Z,8.20
2019-04-29T18:48:51.282Z,13.67
2019-04-29T18:51:25.628Z,9.90
2019-04-29T18:53:55.590Z,13.77
2019-04-29T18:56:26.091Z,17.53
2019-04-29T18:58:56.094Z,14.53
2019-04-29T19:01:29.009Z,15.70
2019-04-29T19:04:13.591Z,8.57
2019-04-29T19:06:40.760Z,7.87
2019-04-29T19:09:17.762Z,10.00
2019-04-29T19:11:42.904Z,10.43
2019-04-29T19:14:12.987Z,9.63
2019-04-29T19:16:43.037Z,8.87
2019-04-29T19:19:13.078Z,13.23
2019-04-29T19:21:43.131Z,12.73
2019-04-29T19:24:13.195Z,11.40
2019-04-29T19:26:44.872Z,9.03
2019-04-29T19:29:15.598Z,10.17
2019-04-29T19:31:49.394Z,11.10
2019-04-29T19:34:18.724Z,10.80
2019-04-29T19:36:50.810Z,8.17
2019-04-29T19:39:21.836Z,11.77
2019-04-29T19:41:52.408Z,10.67
2019-04-29T19:44:26.510Z,12.40
2019-04-29T19:46:56.955Z,10.33
2019-04-29T19:49:26.003Z,9.77
2019-04-29T19:51:56.026Z,7.33
2019-04-29T19:54:28.393Z,8.57
2019-04-29T19:57:03.389Z,15.73
2019-04-29T19:59:30.217Z,13.93
2019-04-29T20:02:05.725Z,12.00
2019-04-29T20:04:38.711Z,12.23
2019-04-29T20:07:10.515Z,10.23
2019-04-29T20:09:41.863Z,13.43
2019-04-29T20:12:16.495Z,14.20
2019-04-29T20:14:45.797Z,14.87
2019-04-29T20:17:50.402Z,18.10
2019-04-29T20:20:29.797Z,13.77
2019-04-29T20:23:01.135Z,15.60
2019-04-29T20:25:37.897Z,16.23
2019-04-29T20:28:06.671Z,17.07
2019-04-29T20:30:35.021Z,15.93
2019-04-29T20:33:11.065Z,17.80
2019-04-29T20:35:40.275Z,13.47
2019-04-29T20:38:08.865Z,12.43
2019-04-29T20:40:43.182Z,16.83
2019-04-29T20:43:10.919Z,18.77
2019-04-29T20:45:40.992Z,13.00
2019-04-29T20:48:15.980Z,17.37
2019-04-29T20:50:46.061Z,15.60
2019-04-29T20:53:23.084Z,15.33
2019-04-29T20:55:55.077Z,16.67
2019-04-29T20:58:31.432Z,15.90
2019-04-29T21:01:03.065Z,16.37
2019-04-29T21:03:32.265Z,16.57
2019-04-29T21:06:03.054Z,20.60
2019-04-29T21:08:34.870Z,18.93
2019-04-29T21:11:14.287Z,19.10
2019-04-29T21:13:56.082Z,18.50
2019-04-29T21:16:34.167Z,19.03
2019-04-29T21:19:08.851Z,16.43
2019-04-29T21:21:42.306Z,21.50
2019-04-29T21:24:14.152Z,23.30
2019-04-29T21:26:44.613Z,21.50
2019-04-29T21:29:15.861Z,19.63
2019-04-29T21:31:46.104Z,20.43
2019-04-29T21:34:17.423Z,21.60
2019-04-29T21:37:12.736Z,23.67
2019-04-29T21:39:56.341Z,19.70
2019-04-29T21:42:47.186Z,24.33
2019-04-29T21:45:17.597Z,20.87
2019-04-29T21:47:52.940Z,23.17
2019-04-29T21:50:19.363Z,25.00
2019-04-29T21:52:49.428Z,24.30
2019-04-29T21:55:20.657Z,22.27
2019-04-29T21:57:54.504Z,21.50
2019-04-29T22:00:24.409Z,21.07
2019-04-29T22:02:58.981Z,20.83
2019-04-29T22:05:28.639Z,21.43
2019-04-29T22:07:58.716Z,22.77
2019-04-29T22:10:29.172Z,23.93
2019-04-29T22:13:02.246Z,25.53
2019-04-29T22:15:37.299Z,19.03
2019-04-29T22:18:07.335Z,20.33
2019-04-29T22:20:35.661Z,22.70
2019-04-29T22:23:12.947Z,23.43
2019-04-29T22:25:41.180Z,20.93
2019-04-29T22:28:10.717Z,26.10
2019-04-29T22:30:41.610Z,20.60
2019-04-29T22:33:11.666Z,21.40
2019-04-29T22:35:41.695Z,25.40
2019-04-29T22:38:12.529Z,23.83
2019-04-29T22:40:45.132Z,28.80
2019-04-29T22:43:23.102Z,24.87
2019-04-29T22:45:53.138Z,23.83
2019-04-29T22:48:24.897Z,23.47
2019-04-29T22:50:55.631Z,25.73
2019-04-29T22:53:25.784Z,27.17
2019-04-29T22:55:56.520Z,28.70
2019-04-29T22:58:26.654Z,27.93
2019-04-29T23:00:56.722Z,23.73
2019-04-29T23:03:26.752Z,25.73
2019-04-29T23:06:00.223Z,30.00
2019-04-29T23:08:29.805Z,30.57
2019-04-29T23:11:04.230Z,33.73
2019-04-29T23:13:32.331Z,27.57
2019-04-29T23:16:02.566Z,25.07
2019-04-29T23:18:41.020Z,25.40
2019-04-29T23:21:21.860Z,29.57
2019-04-29T23:23:59.757Z,35.17
2019-04-29T23:26:29.826Z,27.07
2019-04-29T23:29:03.600Z,28.63
2019-04-29T23:31:31.605Z,26.83
2019-04-29T23:34:01.645Z,24.93
2019-04-29T23:36:31.702Z,25.57
2019-04-29T23:39:01.734Z,27.60
2019-04-29T23:41:36.548Z,30.73
2019-04-29T23:44:08.708Z,28.47
2019-04-29T23:46:36.914Z,27.33
2019-04-29T23:49:06.978Z,23.30
2019-04-29T23:51:37.784Z,26.00
2019-04-29T23:54:08.255Z,24.37
2019-04-29T23:56:53.023Z,28.33
2019-04-29T23:59:26.505Z,28.87
